Wheeler, Mississippi
Current Conditions -  °F | °C
As of 2:08 AM on Monday 22 Dec 2014 (Local Time) from KTUP Reporting Station
Overcast Overcast  
Wind Chill: 46°   Ceiling: 1400
Heat Index: 49°   Visibility: 8mi
Dew Point: 45°   Wind: 7mph
Humidity: 86%   Direction: 190°S
Pressure: 29.93"   Gusts: NA
Location:  34.58°N, 88.61°W
Report Text: KTUP 220808Z AUTO 19006KT 8SM FEW008 OVC014 09/07 A2993 RMK AO2 T00940072
Loading
Personal Weather Stations






























Interactive Weather Map New forecast layout! Learn more

10-Day Weather Forecast

Advertisements
Track Severe Weather on mobile